Time;durP1;ratioP1;P1;durP2;ratioP2;P2;SDS_P1;SDS_P2;PMS_P1;PMS_P2;Temp;Humidity;BMP_temperature;BMP_pressure;BME280_temperature;BME280_humidity;BME280_pressure;Samples;Min_cycle;Max_cycle;Signal;HPM_P1;HPM_P2
2023/09/04 00:02:08;;;;;;;11.02;6.57;;;13.90;99.90;;;;;;5094481;28;20040;-81
2023/09/04 00:04:34;;;;;;;8.77;6.68;;;13.90;99.90;;;;;;5077701;28;20595;-81
2023/09/04 00:07:02;;;;;;;8.20;6.13;;;13.90;99.90;;;;;;5078100;28;20109;-81
2023/09/04 00:09:29;;;;;;;8.93;6.45;;;13.80;99.90;;;;;;5078375;28;20040;-81
2023/09/04 00:11:56;;;;;;;8.02;6.03;;;13.80;99.90;;;;;;5078101;28;20051;-82
2023/09/04 00:14:22;;;;;;;9.13;6.13;;;13.80;99.90;;;;;;5078017;28;20043;-81
2023/09/04 00:16:49;;;;;;;11.02;6.65;;;13.80;99.90;;;;;;5077779;28;20073;-81
2023/09/04 00:19:17;;;;;;;8.85;6.47;;;13.80;99.90;;;;;;5077931;28;20123;-81
2023/09/04 00:21:43;;;;;;;8.95;6.35;;;13.80;99.90;;;;;;5094293;28;20044;-81
2023/09/04 00:24:10;;;;;;;11.10;7.40;;;13.80;99.90;;;;;;5094434;28;20050;-81
2023/09/04 00:26:37;;;;;;;8.95;6.55;;;13.70;99.90;;;;;;5094130;28;20047;-82
2023/09/04 00:29:04;;;;;;;9.32;6.43;;;13.70;99.90;;;;;;5077940;28;20122;-81
2023/09/04 00:31:31;;;;;;;9.15;6.32;;;13.70;99.90;;;;;;5094323;28;20518;-81
2023/09/04 00:33:58;;;;;;;9.38;6.55;;;13.70;99.90;;;;;;5077042;28;20032;-81
2023/09/04 00:36:25;;;;;;;10.23;6.95;;;13.70;99.90;;;;;;5077786;28;20044;-81
2023/09/04 00:38:51;;;;;;;10.02;7.68;;;13.70;99.90;;;;;;5094177;28;20392;-81
2023/09/04 00:41:19;;;;;;;11.85;7.82;;;13.70;99.90;;;;;;5077729;28;20043;-81
2023/09/04 00:43:46;;;;;;;13.25;7.90;;;13.70;99.90;;;;;;5077107;28;20043;-81
2023/09/04 00:46:13;;;;;;;9.45;7.18;;;13.70;99.90;;;;;;5077814;28;20377;-81
2023/09/04 00:48:40;;;;;;;10.23;7.63;;;13.70;99.90;;;;;;5094140;28;20036;-81
2023/09/04 00:51:07;;;;;;;10.65;7.28;;;13.60;99.90;;;;;;5110610;28;20377;-81
2023/09/04 00:53:37;;;;;;;12.48;8.05;;;13.60;99.90;;;;;;5093514;28;20039;-82
2023/09/04 00:56:05;;;;;;;10.20;7.32;;;13.60;99.90;;;;;;5094145;28;20111;-81
2023/09/04 00:58:34;;;;;;;13.82;8.27;;;13.60;99.90;;;;;;5093718;28;20408;-81
2023/09/04 01:01:04;;;;;;;11.82;8.35;;;13.60;99.90;;;;;;5110443;28;20128;-81
2023/09/04 01:03:31;;;;;;;12.18;7.93;;;13.50;99.90;;;;;;5094049;28;20028;-81
2023/09/04 01:05:58;;;;;;;10.98;8.02;;;13.50;99.90;;;;;;5096632;28;20096;-81
2023/09/04 01:08:26;;;;;;;15.93;8.50;;;13.50;99.90;;;;;;5097166;28;20051;-81
2023/09/04 01:11:24;;;;;;;11.95;8.55;;;13.50;99.90;;;;;;5113489;28;20081;-81
2023/09/04 01:13:56;;;;;;;13.30;8.85;;;13.50;99.90;;;;;;5091488;28;20100;-81
2023/09/04 01:16:23;;;;;;;13.80;8.50;;;13.40;99.90;;;;;;5113836;28;20054;-81
2023/09/04 01:18:53;;;;;;;12.95;9.25;;;13.40;99.90;;;;;;5080313;28;20043;-81
2023/09/04 01:21:20;;;;;;;12.13;8.85;;;13.40;99.90;;;;;;5097558;28;20053;-81
2023/09/04 01:23:46;;;;;;;13.02;9.52;;;13.40;99.90;;;;;;5079999;28;20131;-82
2023/09/04 01:26:15;;;;;;;13.90;8.52;;;13.40;99.90;;;;;;5079923;28;20527;-82
2023/09/04 01:28:54;;;;;;;14.40;8.77;;;13.40;99.90;;;;;;5130273;28;20035;-82
2023/09/04 01:31:29;;;;;;;12.20;8.80;;;13.40;99.90;;;;;;5130134;28;20400;-82
2023/09/04 01:34:11;;;;;;;12.10;8.13;;;13.30;99.90;;;;;;5113136;28;20437;-82
2023/09/04 01:36:39;;;;;;;12.15;8.77;;;13.30;99.90;;;;;;5113372;28;20085;-81
2023/09/04 01:39:06;;;;;;;13.02;8.57;;;13.20;99.90;;;;;;5080185;28;20086;-82
2023/09/04 01:41:36;;;;;;;12.55;8.38;;;13.20;99.90;;;;;;5096320;28;20409;-82
2023/09/04 01:44:03;;;;;;;11.82;8.88;;;13.20;99.90;;;;;;5096850;28;20244;-82
2023/09/04 01:46:29;;;;;;;12.40;8.73;;;13.20;99.90;;;;;;5079756;28;20143;-81
2023/09/04 01:48:56;;;;;;;12.95;8.63;;;13.20;99.90;;;;;;5079523;28;20035;-82
2023/09/04 01:51:23;;;;;;;14.57;8.77;;;13.20;99.90;;;;;;5096643;28;20506;-81
2023/09/04 01:53:49;;;;;;;16.80;8.15;;;13.20;99.90;;;;;;5079397;28;20036;-81
2023/09/04 01:56:16;;;;;;;11.40;8.15;;;13.20;99.90;;;;;;5096285;28;20035;-82
2023/09/04 01:58:43;;;;;;;15.00;8.65;;;13.10;99.90;;;;;;5079658;28;20035;-82
2023/09/04 02:01:09;;;;;;;12.90;8.20;;;13.10;99.90;;;;;;5096295;28;20043;-81
2023/09/04 02:03:38;;;;;;;11.77;8.10;;;13.10;99.90;;;;;;5079548;28;20040;-81
2023/09/04 02:06:06;;;;;;;10.43;7.40;;;13.10;99.90;;;;;;5080359;28;20048;-82
2023/09/04 02:08:33;;;;;;;12.55;8.38;;;13.10;99.90;;;;;;5095043;28;20063;-82
2023/09/04 02:11:00;;;;;;;11.93;8.15;;;13.00;99.90;;;;;;5095319;28;20067;-81
2023/09/04 02:13:26;;;;;;;11.07;7.70;;;13.00;99.90;;;;;;5100208;28;20039;-81
2023/09/04 02:15:53;;;;;;;14.35;8.35;;;13.00;99.90;;;;;;5069010;28;20032;-81
2023/09/04 02:18:20;;;;;;;11.85;7.93;;;13.00;99.90;;;;;;5079517;28;20093;-82
2023/09/04 02:20:47;;;;;;;13.98;8.55;;;13.00;99.90;;;;;;5079902;28;20492;-81
2023/09/04 02:23:13;;;;;;;12.65;8.45;;;13.00;99.90;;;;;;5079496;28;20071;-81
2023/09/04 02:25:40;;;;;;;16.77;8.30;;;12.90;99.90;;;;;;5097076;28;20043;-82
2023/09/04 02:28:07;;;;;;;10.32;7.43;;;12.90;99.90;;;;;;5083723;28;20036;-81
2023/09/04 02:30:37;;;;;;;13.45;7.88;;;12.90;99.90;;;;;;5083366;28;20039;-81
2023/09/04 02:33:04;;;;;;;11.35;7.15;;;12.90;99.90;;;;;;5116477;28;20075;-81
2023/09/04 02:35:31;;;;;;;10.27;7.55;;;12.90;99.90;;;;;;5099957;28;20525;-81
2023/09/04 02:37:58;;;;;;;11.85;7.80;;;12.90;99.90;;;;;;5080337;28;20039;-82
2023/09/04 02:40:24;;;;;;;12.82;7.40;;;12.80;99.90;;;;;;5074412;28;20101;-81
2023/09/04 02:42:51;;;;;;;20.50;7.80;;;12.80;99.90;;;;;;5068093;28;20032;-81
2023/09/04 02:45:18;;;;;;;11.55;6.90;;;12.80;99.90;;;;;;5093283;28;20059;-81
2023/09/04 02:47:46;;;;;;;11.02;6.45;;;12.80;99.90;;;;;;5079624;28;20500;-81
2023/09/04 02:50:13;;;;;;;12.50;8.05;;;12.80;99.90;;;;;;5063477;28;20044;-82
2023/09/04 02:52:39;;;;;;;16.67;7.95;;;12.80;99.90;;;;;;5064244;28;20596;-81
2023/09/04 02:55:07;;;;;;;12.95;7.55;;;12.80;99.90;;;;;;5082902;28;20134;-81
2023/09/04 02:57:34;;;;;;;12.07;7.82;;;12.70;99.90;;;;;;5116442;28;20058;-81
2023/09/04 03:00:09;;;;;;;12.40;7.80;;;12.70;99.90;;;;;;5082708;28;20495;-81
2023/09/04 03:02:36;;;;;;;9.57;7.50;;;12.70;99.90;;;;;;5100451;28;20039;-81
2023/09/04 03:05:02;;;;;;;10.73;7.30;;;12.70;99.90;;;;;;5098797;28;20297;-81
2023/09/04 03:07:29;;;;;;;11.48;7.32;;;12.70;99.90;;;;;;5116253;28;20040;-81
2023/09/04 03:09:57;;;;;;;13.65;8.13;;;12.60;99.90;;;;;;5116374;28;20062;-81
2023/09/04 03:12:26;;;;;;;14.15;7.88;;;12.60;99.90;;;;;;5083099;28;20040;-81
2023/09/04 03:15:00;;;;;;;13.88;7.75;;;12.60;99.90;;;;;;5082954;28;20039;-81
2023/09/04 03:17:28;;;;;;;12.05;7.78;;;12.60;99.90;;;;;;5115817;28;20042;-82
2023/09/04 03:19:56;;;;;;;11.93;7.25;;;12.50;99.90;;;;;;5099061;28;20043;-82
2023/09/04 03:22:24;;;;;;;10.60;7.82;;;12.50;99.90;;;;;;5115609;28;20484;-82
2023/09/04 03:24:52;;;;;;;14.18;8.40;;;12.60;99.90;;;;;;5098871;28;20480;-81
2023/09/04 03:27:19;;;;;;;12.40;7.88;;;12.60;99.90;;;;;;5115630;28;20035;-81
2023/09/04 03:29:46;;;;;;;13.57;8.73;;;12.50;99.90;;;;;;5115762;28;20127;-81
2023/09/04 03:32:12;;;;;;;13.40;7.68;;;12.50;99.90;;;;;;5099150;28;20036;-81
2023/09/04 03:34:39;;;;;;;10.95;7.90;;;12.50;99.90;;;;;;5082625;28;20047;-81
2023/09/04 03:37:06;;;;;;;10.45;7.50;;;12.50;99.90;;;;;;5098424;28;20051;-81
2023/09/04 03:39:37;;;;;;;11.63;7.90;;;12.50;99.90;;;;;;5082406;28;20035;-81
2023/09/04 03:42:05;;;;;;;10.98;7.97;;;12.40;99.90;;;;;;5098547;28;20036;-82
2023/09/04 03:44:32;;;;;;;11.23;7.75;;;12.40;99.90;;;;;;5115232;28;20446;-81
2023/09/04 03:46:59;;;;;;;11.70;7.78;;;12.40;99.90;;;;;;5115591;28;20063;-81
2023/09/04 03:49:26;;;;;;;11.15;8.45;;;12.40;99.90;;;;;;5082185;28;20094;-81
2023/09/04 03:51:53;;;;;;;11.27;7.72;;;12.40;99.90;;;;;;5082433;28;20058;-81
2023/09/04 03:54:20;;;;;;;13.23;8.60;;;12.30;99.90;;;;;;5081535;28;20040;-81
2023/09/04 03:56:46;;;;;;;12.73;8.43;;;12.40;99.90;;;;;;5098544;28;20039;-81
2023/09/04 03:59:13;;;;;;;11.57;8.15;;;12.30;99.90;;;;;;5098571;28;20036;-81
2023/09/04 04:01:40;;;;;;;15.38;8.90;;;12.30;99.90;;;;;;5098406;28;20048;-82
2023/09/04 04:04:10;;;;;;;12.15;8.73;;;12.30;99.90;;;;;;5097803;28;20054;-82
2023/09/04 04:06:37;;;;;;;16.75;8.63;;;12.20;99.90;;;;;;5098576;28;20039;-82
2023/09/04 04:09:04;;;;;;;11.98;8.18;;;12.20;99.90;;;;;;5082139;28;20057;-81
2023/09/04 04:11:31;;;;;;;11.55;8.25;;;12.20;99.90;;;;;;5114789;28;20126;-82
2023/09/04 04:13:58;;;;;;;11.75;7.95;;;12.20;99.90;;;;;;5081785;28;20126;-81
2023/09/04 04:16:25;;;;;;;12.45;7.80;;;12.10;99.90;;;;;;5081178;28;20408;-81
2023/09/04 04:18:51;;;;;;;12.38;8.38;;;12.20;99.90;;;;;;5081482;28;20035;-81
2023/09/04 04:21:18;;;;;;;10.82;7.65;;;12.10;99.90;;;;;;5081292;28;20077;-81
2023/09/04 04:23:45;;;;;;;10.18;7.10;;;12.10;99.90;;;;;;5081149;28;20508;-81
2023/09/04 04:26:12;;;;;;;10.50;7.50;;;12.10;99.90;;;;;;5097768;28;20484;-82
2023/09/04 04:28:38;;;;;;;10.07;7.18;;;12.00;99.90;;;;;;5081140;28;20088;-81
2023/09/04 04:31:05;;;;;;;12.00;8.20;;;12.00;99.90;;;;;;5097589;28;20036;-81
2023/09/04 04:33:32;;;;;;;13.38;8.00;;;12.00;99.90;;;;;;5080933;28;20036;-81
2023/09/04 04:35:58;;;;;;;12.43;7.80;;;12.00;99.90;;;;;;5081223;28;20040;-82
2023/09/04 04:38:25;;;;;;;10.32;7.35;;;12.00;99.90;;;;;;5081403;28;20065;-82
2023/09/04 04:40:52;;;;;;;11.38;7.53;;;12.00;99.90;;;;;;5080942;28;20105;-81
2023/09/04 04:43:19;;;;;;;10.35;7.80;;;12.00;99.90;;;;;;5080970;28;20035;-82
2023/09/04 04:45:46;;;;;;;12.10;8.02;;;11.90;99.90;;;;;;5080906;28;20044;-82
2023/09/04 04:48:12;;;;;;;14.65;8.68;;;11.90;99.90;;;;;;5096197;28;20552;-83
2023/09/04 04:50:39;;;;;;;9.63;7.40;;;11.90;99.90;;;;;;5080811;28;20502;-81
2023/09/04 04:53:06;;;;;;;12.48;7.80;;;11.90;99.90;;;;;;5081238;28;20039;-81
2023/09/04 04:55:32;;;;;;;11.95;8.02;;;11.90;99.90;;;;;;5097092;28;20036;-82
2023/09/04 04:57:59;;;;;;;14.48;8.32;;;11.90;99.90;;;;;;5081248;28;20061;-81
2023/09/04 05:00:26;;;;;;;11.93;8.38;;;11.90;99.90;;;;;;5080449;28;20050;-81
2023/09/04 05:02:52;;;;;;;10.93;8.05;;;11.90;99.90;;;;;;5097116;28;20044;-81
2023/09/04 05:05:19;;;;;;;12.38;8.20;;;11.90;99.90;;;;;;5096514;28;20043;-81
2023/09/04 05:07:46;;;;;;;14.88;8.60;;;11.90;99.90;;;;;;5096910;28;20200;-81
2023/09/04 05:10:13;;;;;;;14.38;8.02;;;11.90;99.90;;;;;;5097142;28;20036;-82
2023/09/04 05:12:39;;;;;;;12.93;8.10;;;11.90;99.90;;;;;;5080439;28;20043;-81
2023/09/04 05:15:07;;;;;;;11.18;7.65;;;11.90;99.90;;;;;;5097162;28;20070;-81
2023/09/04 05:17:33;;;;;;;11.57;8.13;;;11.90;99.90;;;;;;5096822;28;20048;-81
2023/09/04 05:20:00;;;;;;;10.65;7.60;;;12.00;99.90;;;;;;5080401;28;20054;-82
2023/09/04 05:22:27;;;;;;;10.52;7.00;;;12.00;99.90;;;;;;5079685;28;20043;-82
2023/09/04 05:24:53;;;;;;;10.30;7.25;;;12.00;99.90;;;;;;5079934;28;20036;-81
2023/09/04 05:27:20;;;;;;;11.80;8.18;;;12.00;99.90;;;;;;5096606;28;20032;-82
2023/09/04 05:29:47;;;;;;;11.43;8.10;;;12.00;99.90;;;;;;5080164;28;20027;-82
2023/09/04 05:32:13;;;;;;;11.98;8.43;;;12.10;99.90;;;;;;5096420;28;20040;-81
2023/09/04 05:34:40;;;;;;;11.90;8.43;;;12.10;99.90;;;;;;5079556;28;20036;-81
2023/09/04 05:37:11;;;;;;;11.48;8.85;;;12.20;99.90;;;;;;5099125;28;20039;-81
2023/09/04 05:39:38;;;;;;;12.27;9.00;;;12.20;99.90;;;;;;5112697;28;20035;-81
2023/09/04 05:42:05;;;;;;;18.02;9.32;;;12.20;99.90;;;;;;5096424;28;20107;-82
2023/09/04 05:44:32;;;;;;;11.63;8.75;;;12.30;99.90;;;;;;5079452;28;20035;-82
2023/09/04 05:47:00;;;;;;;10.57;7.95;;;12.30;99.90;;;;;;5079553;28;20491;-81
2023/09/04 05:49:27;;;;;;;12.05;8.52;;;12.40;99.90;;;;;;5112826;28;20097;-81
2023/09/04 05:51:54;;;;;;;12.63;8.70;;;12.40;99.90;;;;;;5080164;28;20069;-82
2023/09/04 05:54:22;;;;;;;13.02;7.78;;;12.50;99.90;;;;;;5079525;28;20039;-81
2023/09/04 05:56:50;;;;;;;14.32;7.88;;;12.50;99.90;;;;;;5129882;28;20051;-81
2023/09/04 05:59:16;;;;;;;13.90;8.32;;;12.60;99.90;;;;;;5112598;28;20114;-81
2023/09/04 06:01:43;;;;;;;11.02;7.93;;;12.70;99.90;;;;;;5095746;28;20798;-81
2023/09/04 06:04:11;;;;;;;11.05;7.97;;;12.70;99.90;;;;;;5096038;28;20048;-81
2023/09/04 06:06:38;;;;;;;12.57;8.15;;;12.70;99.90;;;;;;5096046;28;20040;-81
2023/09/04 06:09:06;;;;;;;13.27;8.25;;;12.80;99.90;;;;;;5096610;28;20059;-82
2023/09/04 06:11:32;;;;;;;11.38;8.00;;;12.90;99.90;;;;;;5079469;28;20038;-81
2023/09/04 06:13:59;;;;;;;11.15;7.72;;;12.90;99.90;;;;;;5079380;28;20040;-81
2023/09/04 06:16:26;;;;;;;11.70;8.15;;;13.00;99.90;;;;;;5079380;28;20127;-83
2023/09/04 06:18:53;;;;;;;10.95;7.68;;;13.00;99.90;;;;;;5096215;28;20126;-81
2023/09/04 06:21:20;;;;;;;12.15;7.78;;;13.00;99.90;;;;;;5096354;28;20073;-82
2023/09/04 06:23:46;;;;;;;14.73;8.00;;;13.10;99.90;;;;;;5079336;28;20054;-81
2023/09/04 06:26:13;;;;;;;11.98;7.82;;;13.20;99.90;;;;;;5079770;28;20043;-82
2023/09/04 06:28:40;;;;;;;12.68;8.05;;;13.20;99.90;;;;;;5079145;28;20036;-82
2023/09/04 06:31:07;;;;;;;13.23;8.07;;;13.30;99.90;;;;;;5096116;28;20144;-82
2023/09/04 06:33:37;;;;;;;11.23;7.20;;;13.40;99.90;;;;;;5090540;28;20036;-82
2023/09/04 06:36:05;;;;;;;11.20;6.95;;;13.50;99.90;;;;;;5063323;28;20454;-81
2023/09/04 06:38:31;;;;;;;13.27;6.95;;;13.60;99.90;;;;;;5088419;28;20036;-82
2023/09/04 06:40:58;;;;;;;9.77;6.88;;;13.60;99.90;;;;;;5073843;28;20061;-81
2023/09/04 06:43:27;;;;;;;11.35;7.07;;;13.70;99.90;;;;;;5059351;28;20047;-81
2023/09/04 06:45:54;;;;;;;10.35;6.80;;;13.80;99.90;;;;;;5092162;28;20036;-82
2023/09/04 06:48:20;;;;;;;12.98;6.97;;;13.90;99.90;;;;;;5075712;28;20040;-82
2023/09/04 06:50:49;;;;;;;9.52;6.95;;;14.00;99.90;;;;;;5075374;28;20036;-81
2023/09/04 06:53:16;;;;;;;15.75;6.85;;;14.00;99.90;;;;;;5076155;28;20066;-90
2023/09/04 06:55:47;;;;;;;11.20;6.65;;;14.10;99.90;;;;;;5095677;28;20086;-90
2023/09/04 06:58:14;;;;;;;19.75;7.45;;;14.20;99.90;;;;;;5092983;28;20135;-83
2023/09/04 07:00:41;;;;;;;12.02;7.05;;;14.30;99.90;;;;;;5065030;28;20047;-83
2023/09/04 07:03:08;;;;;;;9.57;6.93;;;14.40;99.90;;;;;;5077232;28;20487;-83
2023/09/04 07:05:34;;;;;;;9.45;6.78;;;14.50;99.90;;;;;;5094871;28;20512;-83
2023/09/04 07:08:04;;;;;;;8.23;6.03;;;14.60;99.90;;;;;;5095619;28;20492;-83
2023/09/04 07:10:31;;;;;;;15.43;6.40;;;14.70;99.90;;;;;;5075769;28;20040;-83
2023/09/04 07:13:00;;;;;;;15.20;6.15;;;14.90;99.90;;;;;;5111539;28;20077;-86
2023/09/04 07:15:27;;;;;;;8.23;5.97;;;15.00;99.90;;;;;;5094900;28;20043;-85
2023/09/04 07:17:54;;;;;;;8.25;6.35;;;14.90;99.90;;;;;;5080546;28;20040;-85
2023/09/04 07:20:21;;;;;;;7.90;6.07;;;15.20;99.90;;;;;;5115441;28;20129;-86
2023/09/04 07:22:48;;;;;;;10.25;6.50;;;15.30;99.90;;;;;;5098778;28;20399;-86
2023/09/04 07:25:14;;;;;;;12.43;6.70;;;15.40;99.90;;;;;;5082099;28;20508;-85
2023/09/04 07:27:41;;;;;;;9.15;6.07;;;15.50;99.90;;;;;;5114798;28;20529;-85
2023/09/04 07:30:08;;;;;;;8.52;6.00;;;15.60;99.90;;;;;;5098945;28;20042;-85
2023/09/04 07:32:35;;;;;;;10.15;6.28;;;15.70;99.90;;;;;;5082347;28;20499;-85
2023/09/04 07:35:03;;;;;;;8.45;5.95;;;15.80;99.90;;;;;;5082170;28;20139;-86
2023/09/04 07:37:30;;;;;;;9.35;5.78;;;16.00;99.90;;;;;;5082694;28;20044;-86
2023/09/04 07:39:57;;;;;;;9.77;5.88;;;16.10;99.90;;;;;;5105562;28;20568;-83
2023/09/04 07:42:27;;;;;;;9.70;6.00;;;16.20;99.90;;;;;;5112944;28;20411;-84
2023/09/04 07:44:54;;;;;;;8.00;5.47;;;16.40;99.90;;;;;;5082656;28;20142;-83
2023/09/04 07:47:21;;;;;;;8.07;4.90;;;16.60;99.90;;;;;;5081747;28;20132;-83
2023/09/04 07:49:48;;;;;;;7.32;5.32;;;16.70;99.90;;;;;;5098275;28;20040;-83
2023/09/04 07:52:15;;;;;;;8.25;4.75;;;16.80;99.90;;;;;;5098117;28;20043;-82
2023/09/04 07:54:41;;;;;;;7.18;5.13;;;16.90;99.90;;;;;;5081331;28;20042;-83
2023/09/04 07:57:08;;;;;;;7.55;4.75;;;17.10;99.90;;;;;;5114539;28;20518;-83
2023/09/04 07:59:35;;;;;;;6.72;4.88;;;17.20;99.90;;;;;;5098509;28;20040;-83
2023/09/04 08:02:03;;;;;;;7.95;4.70;;;17.30;99.90;;;;;;5081293;28;20032;-82
2023/09/04 08:04:30;;;;;;;6.75;4.82;;;17.40;99.90;;;;;;5081336;28;20073;-82
2023/09/04 08:06:57;;;;;;;7.60;5.03;;;17.50;99.90;;;;;;5081498;28;20043;-82
2023/09/04 08:09:23;;;;;;;7.00;5.25;;;17.60;99.90;;;;;;5114513;28;20039;-82
2023/09/04 08:11:50;;;;;;;5.88;4.57;;;17.70;99.90;;;;;;5097620;28;20097;-83
2023/09/04 08:14:17;;;;;;;6.50;5.03;;;17.90;99.90;;;;;;5114761;28;20048;-82
2023/09/04 08:16:44;;;;;;;6.85;4.88;;;18.00;99.90;;;;;;5081546;28;20122;-83
2023/09/04 08:19:11;;;;;;;7.03;4.53;;;18.20;99.90;;;;;;5097939;28;20093;-82
2023/09/04 08:21:37;;;;;;;6.88;4.55;;;18.30;99.90;;;;;;5080918;28;20092;-82
2023/09/04 08:24:05;;;;;;;7.78;4.40;;;18.30;99.90;;;;;;5097105;28;20039;-82
2023/09/04 08:26:31;;;;;;;6.40;4.85;;;18.50;99.90;;;;;;5097999;28;20036;-82
2023/09/04 08:28:58;;;;;;;7.13;4.47;;;18.60;99.90;;;;;;5130936;28;20101;-82
2023/09/04 08:31:25;;;;;;;6.43;4.15;;;18.70;99.90;;;;;;5080825;28;20043;-83
2023/09/04 08:33:51;;;;;;;7.40;4.32;;;18.90;99.90;;;;;;5080556;28;20047;-83
2023/09/04 08:36:18;;;;;;;4.97;3.80;;;19.10;99.90;;;;;;5097406;28;20047;-82
2023/09/04 08:38:45;;;;;;;6.28;3.75;;;19.10;99.90;;;;;;5097129;28;20081;-83
2023/09/04 08:41:16;;;;;;;8.02;4.07;;;19.20;99.90;;;;;;5106620;28;20069;-84
2023/09/04 08:43:46;;;;;;;6.18;4.28;;;19.30;99.90;;;;;;5099266;28;20471;-84
2023/09/04 08:46:15;;;;;;;5.78;3.65;;;19.40;99.90;;;;;;5114059;28;20028;-82
2023/09/04 08:48:44;;;;;;;4.68;3.13;;;19.50;99.90;;;;;;5097113;28;20159;-82
2023/09/04 08:51:11;;;;;;;5.20;3.50;;;19.60;99.90;;;;;;5130357;28;20036;-82
2023/09/04 08:53:38;;;;;;;5.40;3.55;;;19.70;99.90;;;;;;5113635;28;20508;-82
2023/09/04 08:56:05;;;;;;;7.43;3.70;;;19.80;99.90;;;;;;5096446;28;20043;-82
2023/09/04 08:58:32;;;;;;;6.70;3.15;;;19.90;99.90;;;;;;5113358;28;20403;-82
2023/09/04 09:00:59;;;;;;;7.78;3.03;;;20.00;99.90;;;;;;5097063;28;20436;-82
2023/09/04 09:03:27;;;;;;;5.75;3.35;;;20.10;99.90;;;;;;5096876;28;20078;-82
2023/09/04 09:05:55;;;;;;;4.00;3.00;;;20.10;99.90;;;;;;5095751;28;20053;-83
2023/09/04 09:08:24;;;;;;;4.43;3.22;;;20.20;99.90;;;;;;5097185;28;20035;-82
2023/09/04 09:10:52;;;;;;;4.35;3.20;;;20.30;99.90;;;;;;5129810;28;20510;-83
2023/09/04 09:13:19;;;;;;;6.03;3.30;;;20.40;99.90;;;;;;5080335;28;20163;-83
2023/09/04 09:15:46;;;;;;;7.93;3.83;;;20.40;99.90;;;;;;5113064;28;20126;-83
2023/09/04 09:18:37;;;;;;;6.63;4.07;;;20.60;99.90;;;;;;5079946;28;20746;-83
2023/09/04 09:21:24;;;;;;;8.00;3.17;;;20.60;99.90;;;;;;5112929;28;20687;-83
2023/09/04 09:24:17;;;;;;;7.82;3.80;;;20.70;99.90;;;;;;5097112;28;20039;-83
2023/09/04 09:26:53;;;;;;;5.00;3.38;;;20.80;99.90;;;;;;5113025;28;20031;-83
2023/09/04 09:29:20;;;;;;;6.55;3.78;;;20.90;99.90;;;;;;5079828;28;20114;-83
2023/09/04 09:31:47;;;;;;;5.72;3.50;;;21.00;99.90;;;;;;5079609;28;20180;-82
2023/09/04 09:34:14;;;;;;;6.53;3.42;;;21.00;99.90;;;;;;5095269;28;20071;-82
2023/09/04 09:36:41;;;;;;;5.13;3.30;;;21.00;99.90;;;;;;5096356;28;20043;-82
2023/09/04 09:39:08;;;;;;;4.18;2.67;;;21.10;99.90;;;;;;5079337;28;20043;-82
2023/09/04 09:41:35;;;;;;;4.70;2.97;;;21.20;99.90;;;;;;5090945;28;20036;-82
2023/09/04 09:44:04;;;;;;;4.97;2.90;;;21.40;99.90;;;;;;5059576;28;20089;-83
2023/09/04 09:46:34;;;;;;;6.38;3.25;;;21.40;99.90;;;;;;5076745;28;20043;-82
2023/09/04 09:49:01;;;;;;;4.13;2.42;;;21.50;99.90;;;;;;5095967;28;20039;-82
2023/09/04 09:51:31;;;;;;;5.15;2.70;;;21.60;99.90;;;;;;5079638;28;20043;-82
2023/09/04 09:53:57;;;;;;;5.05;2.83;;;21.70;99.90;;;;;;5112527;28;20036;-83
2023/09/04 09:56:25;;;;;;;5.07;2.63;;;21.80;99.90;;;;;;5079657;28;20426;-83
2023/09/04 09:58:52;;;;;;;4.30;2.30;;;21.80;99.90;;;;;;5079939;28;20126;-83
2023/09/04 10:01:19;;;;;;;5.03;2.33;;;21.80;99.90;;;;;;5095961;28;20147;-83
2023/09/04 10:03:47;;;;;;;4.00;2.20;;;21.90;99.90;;;;;;5112093;28;20105;-82
2023/09/04 10:06:29;;;;;;;4.47;2.42;;;22.00;99.90;;;;;;5112210;28;20598;-81
2023/09/04 10:08:59;;;;;;;4.18;2.30;;;22.00;99.90;;;;;;5112421;28;20077;-82
2023/09/04 10:11:26;;;;;;;3.85;2.22;;;22.10;99.90;;;;;;5111964;28;20471;-82
2023/09/04 10:14:02;;;;;;;4.80;2.03;;;22.10;99.90;;;;;;5095799;28;20126;-82
2023/09/04 10:16:35;;;;;;;4.65;2.30;;;22.20;99.90;;;;;;5112616;28;20079;-82
2023/09/04 10:19:04;;;;;;;3.58;2.03;;;22.20;99.90;;;;;;5111687;28;20040;-83
2023/09/04 10:21:33;;;;;;;3.80;2.30;;;22.30;99.90;;;;;;5095573;28;20058;-84
2023/09/04 10:24:05;;;;;;;4.20;2.63;;;22.40;99.90;;;;;;5128826;28;20385;-84
2023/09/04 10:26:39;;;;;;;2.88;2.17;;;22.40;99.90;;;;;;5096198;28;20055;-83
2023/09/04 10:29:14;;;;;;;4.45;2.17;;;22.60;99.90;;;;;;5128818;28;20087;-85
2023/09/04 10:31:42;;;;;;;3.30;1.83;;;22.70;99.90;;;;;;5112538;28;20119;-85
2023/09/04 10:34:09;;;;;;;4.93;2.03;;;22.80;99.90;;;;;;5112054;28;20046;-86
2023/09/04 10:36:38;;;;;;;5.95;2.58;;;22.90;99.90;;;;;;5095462;28;20039;-86
2023/09/04 10:39:08;;;;;;;4.28;2.25;;;22.90;99.90;;;;;;5095767;28;20560;-84
2023/09/04 10:41:35;;;;;;;3.45;2.00;;;23.00;99.90;;;;;;5088139;28;20073;-83
2023/09/04 10:44:02;;;;;;;3.40;2.00;;;23.00;99.90;;;;;;5095341;28;20071;-84
2023/09/04 10:46:29;;;;;;;4.60;2.05;;;23.10;99.90;;;;;;5079779;28;20432;-84
2023/09/04 10:48:56;;;;;;;3.83;2.08;;;23.10;99.90;;;;;;5115991;28;20044;-85
2023/09/04 10:51:33;;;;;;;5.50;2.20;;;23.20;99.90;;;;;;5083270;28;20130;-84
2023/09/04 10:54:10;;;;;;;5.07;1.80;;;23.30;99.90;;;;;;5098770;28;20149;-84
2023/09/04 10:56:55;;;;;;;4.55;2.05;;;23.30;99.90;;;;;;5108721;28;20590;-86
2023/09/04 10:59:22;;;;;;;4.73;1.90;;;23.40;99.90;;;;;;5115780;28;20403;-84
2023/09/04 11:01:49;;;;;;;4.13;2.10;;;23.40;99.90;;;;;;5115843;28;20039;-84
2023/09/04 11:04:49;;;;;;;3.05;1.83;;;23.50;99.90;;;;;;5115564;28;20131;-84
2023/09/04 11:07:19;;;;;;;3.63;1.88;;;23.50;99.90;;;;;;5115579;28;20100;-85
2023/09/04 11:09:53;;;;;;;3.10;1.70;;;23.60;99.90;;;;;;5115478;28;20381;-84
2023/09/04 11:12:22;;;;;;;4.32;1.73;;;23.60;99.90;;;;;;5099249;28;20039;-84
2023/09/04 11:14:53;;;;;;;3.00;1.80;;;23.80;99.90;;;;;;5115505;28;20078;-84
2023/09/04 11:17:40;;;;;;;3.00;1.60;;;23.80;99.90;;;;;;5115430;28;20047;-84
2023/09/04 11:20:09;;;;;;;4.82;1.75;;;23.80;99.90;;;;;;5115541;28;20089;-83
2023/09/04 11:22:36;;;;;;;3.35;1.80;;;23.90;99.90;;;;;;5099223;28;20043;-83
2023/09/04 11:25:03;;;;;;;2.90;1.50;;;23.90;99.90;;;;;;5091638;28;20330;-84
2023/09/04 11:27:30;;;;;;;3.88;1.80;;;23.90;99.90;;;;;;5109075;28;20044;-84
2023/09/04 11:30:03;;;;;;;2.97;1.70;;;24.00;99.90;;;;;;5095876;28;20251;-84
2023/09/04 11:32:29;;;;;;;3.50;1.88;;;24.00;99.90;;;;;;5113079;28;20039;-83
2023/09/04 11:34:57;;;;;;;2.85;1.60;;;24.10;99.90;;;;;;5079749;28;20039;-83
2023/09/04 11:37:31;;;;;;;3.10;1.58;;;24.10;99.90;;;;;;5081809;28;20048;-83
2023/09/04 11:40:00;;;;;;;3.00;1.67;;;24.20;99.90;;;;;;5102295;28;20077;-83
2023/09/04 11:42:27;;;;;;;4.20;1.85;;;24.10;99.90;;;;;;5110589;28;20040;-83
2023/09/04 11:44:54;;;;;;;6.22;2.03;;;24.10;99.90;;;;;;5094608;28;20040;-83
2023/09/04 11:47:24;;;;;;;2.60;1.48;;;24.10;99.90;;;;;;5104145;28;20047;-82
2023/09/04 11:49:53;;;;;;;3.40;1.75;;;24.10;99.90;;;;;;5081721;28;20086;-82
2023/09/04 11:52:26;;;;;;;3.55;1.70;;;24.10;99.90;;;;;;5082207;28;20172;-83
2023/09/04 11:54:53;;;;;;;3.08;1.83;;;24.10;99.90;;;;;;5114917;28;20050;-82
2023/09/04 11:57:21;;;;;;;3.42;1.90;;;24.10;99.90;;;;;;5074409;28;20043;-84
2023/09/04 11:59:48;;;;;;;3.97;1.70;;;24.10;99.90;;;;;;5094334;28;20122;-82
2023/09/04 12:02:15;;;;;;;2.55;1.50;;;24.10;99.90;;;;;;5077285;28;20054;-82
2023/09/04 12:04:42;;;;;;;3.97;1.88;;;24.10;99.90;;;;;;5092636;28;20045;-82
2023/09/04 12:07:11;;;;;;;3.20;1.55;;;24.20;99.90;;;;;;5074457;28;20052;-83
2023/09/04 12:09:38;;;;;;;2.97;1.65;;;24.20;99.90;;;;;;5080333;28;20123;-82
2023/09/04 12:12:05;;;;;;;4.70;1.60;;;24.30;99.90;;;;;;5099307;28;20132;-82
2023/09/04 12:14:32;;;;;;;2.15;1.30;;;24.20;99.90;;;;;;5107302;28;20392;-82
2023/09/04 12:16:59;;;;;;;2.67;1.45;;;24.30;99.90;;;;;;5070180;28;20044;-83
2023/09/04 12:19:26;;;;;;;3.55;1.80;;;24.40;99.90;;;;;;5101246;28;20069;-83
2023/09/04 12:21:53;;;;;;;5.13;1.90;;;24.30;99.90;;;;;;5081949;28;20093;-83
2023/09/04 12:24:21;;;;;;;3.97;1.70;;;24.40;99.90;;;;;;5098768;28;20454;-83
2023/09/04 12:26:49;;;;;;;3.03;1.58;;;24.50;99.90;;;;;;5084686;28;20123;-82
2023/09/04 12:29:18;;;;;;;2.33;1.27;;;24.50;99.90;;;;;;5105674;28;20420;-83
2023/09/04 12:31:48;;;;;;;3.08;1.70;;;24.50;99.90;;;;;;5093869;28;20052;-81
2023/09/04 12:34:15;;;;;;;4.72;1.50;;;24.50;99.90;;;;;;5125686;28;20036;-82
2023/09/04 12:36:42;;;;;;;2.97;1.52;;;24.60;99.90;;;;;;5057581;28;20041;-82
2023/09/04 12:39:08;;;;;;;3.25;1.52;;;24.50;99.90;;;;;;5056595;28;20047;-82
2023/09/04 12:41:36;;;;;;;4.53;1.73;;;24.40;99.90;;;;;;5094418;28;20073;-82
2023/09/04 12:44:03;;;;;;;3.70;1.60;;;24.40;99.90;;;;;;5077371;28;20129;-81
2023/09/04 12:46:30;;;;;;;4.47;2.13;;;24.30;99.90;;;;;;5093683;28;20098;-82